Time;durP1;ratioP1;P1;durP2;ratioP2;P2;SDS_P1;SDS_P2;PMS_P1;PMS_P2;Temp;Humidity;BMP_temperature;BMP_pressure;BME280_temperature;BME280_humidity;BME280_pressure;Samples;Min_cycle;Max_cycle;Signal;HPM_P1;HPM_P2
2022/04/27 00:00:39;;;;;;;7.10;6.50;;;11.10;94.80;;;;;;970566;145;27410;-73
2022/04/27 00:03:05;;;;;;;7.63;6.83;;;11.10;94.90;;;;;;973052;145;27381;-73
2022/04/27 00:05:32;;;;;;;7.60;6.87;;;11.00;94.90;;;;;;972660;145;27343;-73
2022/04/27 00:07:59;;;;;;;7.13;6.43;;;11.00;95.00;;;;;;969100;145;27347;-73
2022/04/27 00:10:25;;;;;;;7.73;7.03;;;11.00;95.00;;;;;;973912;145;27276;-73
2022/04/27 00:12:51;;;;;;;7.70;7.00;;;10.90;95.00;;;;;;972562;145;27319;-73
2022/04/27 00:15:21;;;;;;;7.40;6.70;;;10.90;95.10;;;;;;973324;145;27425;-74
2022/04/27 00:17:45;;;;;;;6.43;5.90;;;10.80;95.00;;;;;;973767;145;27322;-73
2022/04/27 00:20:11;;;;;;;7.20;6.50;;;10.80;95.00;;;;;;971954;145;27356;-73
2022/04/27 00:22:38;;;;;;;6.67;6.07;;;10.70;94.90;;;;;;972410;145;27297;-73
2022/04/27 00:25:04;;;;;;;7.30;6.60;;;10.70;94.90;;;;;;973095;145;27269;-73
2022/04/27 00:27:31;;;;;;;7.93;7.13;;;10.60;94.80;;;;;;972987;145;27335;-73
2022/04/27 00:29:58;;;;;;;7.30;6.43;;;10.60;94.80;;;;;;971446;145;27437;-73
2022/04/27 00:32:24;;;;;;;6.70;6.10;;;10.50;94.70;;;;;;974569;145;27239;-74
2022/04/27 00:34:51;;;;;;;6.30;5.70;;;10.40;94.60;;;;;;972100;145;27325;-71
2022/04/27 00:37:20;;;;;;;7.00;6.43;;;10.30;94.60;;;;;;972046;145;27382;-72
2022/04/27 00:39:44;;;;;;;7.37;6.67;;;10.20;94.60;;;;;;970922;145;28241;-73
2022/04/27 00:42:17;;;;;;;6.33;5.83;;;10.10;94.60;;;;;;973719;145;27662;-72
2022/04/27 00:44:46;;;;;;;7.23;6.53;;;10.00;94.60;;;;;;972121;145;27261;-74
2022/04/27 00:47:12;;;;;;;7.13;6.53;;;10.00;94.70;;;;;;969186;145;27300;-73
2022/04/27 00:49:41;;;;;;;6.77;6.17;;;9.90;94.80;;;;;;962780;147;27771;-74
2022/04/27 00:52:09;;;;;;;7.20;6.50;;;9.80;95.00;;;;;;963255;147;28386;-73
2022/04/27 00:54:34;;;;;;;7.40;6.70;;;9.70;95.10;;;;;;961334;147;27376;-73
2022/04/27 00:57:01;;;;;;;7.70;7.00;;;9.70;95.20;;;;;;961201;147;27897;-72
2022/04/27 00:59:27;;;;;;;7.20;6.50;;;9.60;95.30;;;;;;959787;147;27402;-72
2022/04/27 01:01:54;;;;;;;6.57;5.97;;;9.60;95.50;;;;;;961716;147;27334;-74
2022/04/27 01:04:21;;;;;;;6.90;6.30;;;9.50;95.70;;;;;;961443;147;27362;-73
2022/04/27 01:06:47;;;;;;;7.23;6.37;;;9.50;96.00;;;;;;961139;147;27259;-72
2022/04/27 01:09:14;;;;;;;7.00;6.40;;;9.50;96.20;;;;;;962301;147;27372;-73
2022/04/27 01:11:40;;;;;;;6.80;6.20;;;9.50;96.30;;;;;;961783;146;27278;-73
2022/04/27 01:14:07;;;;;;;6.87;6.27;;;9.50;96.30;;;;;;964915;147;27762;-73
2022/04/27 01:16:34;;;;;;;6.53;5.97;;;9.40;96.30;;;;;;962676;147;27327;-72
2022/04/27 01:19:00;;;;;;;6.07;5.57;;;9.40;96.20;;;;;;962838;147;27300;-73
2022/04/27 01:21:27;;;;;;;7.00;6.37;;;9.40;96.20;;;;;;962541;147;27300;-73
2022/04/27 01:23:53;;;;;;;6.77;6.17;;;9.40;96.20;;;;;;963375;146;27244;-73
2022/04/27 01:26:20;;;;;;;6.13;5.63;;;9.40;96.30;;;;;;963235;147;27463;-74
2022/04/27 01:28:46;;;;;;;6.60;6.00;;;9.40;96.50;;;;;;962459;147;27349;-73
2022/04/27 01:31:14;;;;;;;6.63;6.03;;;9.30;96.60;;;;;;963917;147;28514;-72
2022/04/27 01:33:40;;;;;;;6.43;5.87;;;9.40;97.10;;;;;;964751;147;27256;-72
2022/04/27 01:36:06;;;;;;;6.23;5.63;;;9.40;97.00;;;;;;963769;146;27264;-73
2022/04/27 01:38:39;;;;;;;6.60;6.00;;;9.40;97.20;;;;;;962278;147;27384;-72
2022/04/27 01:41:05;;;;;;;7.87;6.70;;;9.40;97.20;;;;;;963342;147;27440;-74
2022/04/27 01:43:33;;;;;;;6.13;5.63;;;9.50;97.20;;;;;;963154;147;27396;-73
2022/04/27 01:45:59;;;;;;;6.10;5.60;;;9.50;97.10;;;;;;962550;147;28030;-72
2022/04/27 01:48:26;;;;;;;7.00;6.40;;;9.50;97.00;;;;;;965023;147;27318;-74
2022/04/27 01:50:52;;;;;;;6.73;6.10;;;9.50;96.90;;;;;;964523;147;27303;-73
2022/04/27 01:56:03;;;;;;;6.10;5.27;;;9.50;96.80;;;;;;963918;147;27330;-73
2022/04/27 01:58:30;;;;;;;6.93;6.33;;;9.50;96.70;;;;;;961162;147;27446;-72
2022/04/27 02:00:56;;;;;;;7.10;6.50;;;9.50;96.80;;;;;;960085;144;27355;-72
2022/04/27 02:03:23;;;;;;;6.87;6.27;;;9.50;96.90;;;;;;944731;147;27463;-73
2022/04/27 02:05:50;;;;;;;7.90;7.20;;;9.50;97.00;;;;;;963123;144;27378;-73
2022/04/27 02:08:22;;;;;;;6.83;6.23;;;9.50;97.20;;;;;;962894;144;27306;-74
2022/04/27 02:10:48;;;;;;;6.93;6.33;;;9.50;97.40;;;;;;950475;147;27307;-73
2022/04/27 02:13:15;;;;;;;7.43;6.73;;;9.50;97.50;;;;;;943924;148;27258;-73
2022/04/27 02:15:41;;;;;;;7.27;6.67;;;9.60;97.60;;;;;;953541;147;27288;-73
2022/04/27 02:18:08;;;;;;;7.03;6.43;;;9.60;97.70;;;;;;951353;147;27695;-73
2022/04/27 02:20:35;;;;;;;6.83;6.23;;;9.70;97.80;;;;;;946735;147;27356;-74
2022/04/27 02:23:01;;;;;;;8.03;7.33;;;9.70;98.20;;;;;;950649;147;27428;-74
2022/04/27 02:25:28;;;;;;;6.87;6.17;;;9.80;97.80;;;;;;951213;147;27356;-73
2022/04/27 02:27:55;;;;;;;6.60;6.10;;;9.80;97.90;;;;;;944181;147;27293;-73
2022/04/27 02:30:21;;;;;;;6.80;6.10;;;9.90;97.90;;;;;;954691;147;27275;-74
2022/04/27 02:32:47;;;;;;;7.57;6.87;;;9.90;97.90;;;;;;953504;147;27344;-74
2022/04/27 02:35:14;;;;;;;6.67;6.07;;;9.90;97.90;;;;;;954259;147;27452;-72
2022/04/27 02:37:41;;;;;;;9.30;8.50;;;10.00;97.90;;;;;;959738;145;27292;-72
2022/04/27 02:40:10;;;;;;;8.37;7.57;;;10.00;97.50;;;;;;959224;145;27661;-72
2022/04/27 02:42:34;;;;;;;7.50;6.90;;;10.10;97.80;;;;;;957126;145;27279;-72
2022/04/27 02:45:00;;;;;;;9.57;8.60;;;10.10;97.80;;;;;;958975;145;27383;-73
2022/04/27 02:47:27;;;;;;;12.33;11.13;;;10.20;97.80;;;;;;961333;146;27349;-73
2022/04/27 02:52:38;;;;;;;10.33;9.33;;;10.20;97.80;;;;;;963178;146;27834;-73
2022/04/27 02:55:05;;;;;;;9.60;8.70;;;10.20;97.70;;;;;;961732;146;27881;-72
2022/04/27 02:57:31;;;;;;;9.27;8.37;;;10.30;97.80;;;;;;961139;146;27296;-72
2022/04/27 02:59:58;;;;;;;9.37;8.47;;;10.30;97.70;;;;;;960866;146;27424;-73
2022/04/27 03:02:25;;;;;;;8.80;8.00;;;10.30;97.70;;;;;;961916;146;27924;-73
2022/04/27 03:04:51;;;;;;;9.87;8.97;;;10.30;97.60;;;;;;961051;146;27436;-72
2022/04/27 03:07:18;;;;;;;10.00;9.00;;;10.30;97.50;;;;;;960104;146;27687;-72
2022/04/27 03:09:44;;;;;;;11.00;9.90;;;10.30;97.50;;;;;;961754;146;27333;-74
2022/04/27 03:12:12;;;;;;;11.43;10.27;;;10.40;97.40;;;;;;963558;146;27439;-74
2022/04/27 03:14:38;;;;;;;13.33;11.63;;;10.40;97.40;;;;;;961682;146;27335;-72
2022/04/27 03:17:04;;;;;;;14.40;12.07;;;10.30;97.40;;;;;;962660;146;27317;-72
2022/04/27 03:19:31;;;;;;;15.63;12.87;;;10.30;97.40;;;;;;963116;145;27296;-73
2022/04/27 03:21:57;;;;;;;15.20;13.67;;;10.40;97.40;;;;;;962815;146;27311;-73
2022/04/27 03:24:24;;;;;;;16.60;14.30;;;10.40;97.60;;;;;;959143;146;27401;-72
2022/04/27 03:26:50;;;;;;;13.83;12.20;;;10.40;97.50;;;;;;961516;146;27351;-72
2022/04/27 03:29:17;;;;;;;14.73;13.17;;;10.40;97.60;;;;;;961550;146;27337;-71
2022/04/27 03:31:44;;;;;;;20.40;14.93;;;10.40;97.70;;;;;;959886;146;27446;-73
2022/04/27 03:34:10;;;;;;;18.70;14.47;;;10.40;97.70;;;;;;960686;146;27302;-73
2022/04/27 03:36:37;;;;;;;18.73;12.83;;;10.40;97.60;;;;;;961390;146;27389;-72
2022/04/27 03:39:03;;;;;;;18.90;13.77;;;10.40;97.50;;;;;;962702;146;27318;-74
2022/04/27 03:41:30;;;;;;;32.07;14.23;;;10.40;97.40;;;;;;961748;146;27342;-74
2022/04/27 03:43:57;;;;;;;21.70;14.53;;;10.40;97.10;;;;;;961688;146;27324;-72
2022/04/27 03:46:23;;;;;;;41.97;13.80;;;10.40;97.20;;;;;;960452;146;27263;-72
2022/04/27 03:48:50;;;;;;;32.83;13.17;;;10.40;97.60;;;;;;961723;146;27341;-73
2022/04/27 03:51:16;;;;;;;43.97;13.70;;;10.40;97.20;;;;;;961138;146;27335;-74
2022/04/27 03:53:44;;;;;;;54.47;13.03;;;10.40;97.10;;;;;;961246;146;27496;-72
2022/04/27 03:56:10;;;;;;;26.13;12.77;;;10.40;97.10;;;;;;961298;146;27347;-72
2022/04/27 03:58:36;;;;;;;43.40;12.87;;;10.40;97.00;;;;;;961215;146;27360;-72
2022/04/27 04:01:03;;;;;;;44.07;12.50;;;10.30;97.00;;;;;;959419;146;27337;-72
2022/04/27 04:03:29;;;;;;;46.63;11.70;;;10.30;96.90;;;;;;961782;146;27489;-74
2022/04/27 04:05:56;;;;;;;56.57;11.90;;;10.30;96.90;;;;;;961188;146;27428;-72
2022/04/27 04:08:23;;;;;;;57.40;12.10;;;10.20;96.70;;;;;;961893;146;27335;-72
2022/04/27 04:10:49;;;;;;;42.70;11.73;;;10.20;96.50;;;;;;961768;146;27428;-72
2022/04/27 04:13:16;;;;;;;32.97;10.70;;;10.20;96.50;;;;;;960799;146;27272;-73
2022/04/27 04:15:42;;;;;;;30.67;10.93;;;10.10;96.50;;;;;;960332;146;27303;-73
2022/04/27 04:18:09;;;;;;;27.43;9.97;;;10.10;96.70;;;;;;962049;146;27413;-74
2022/04/27 04:20:35;;;;;;;66.07;11.23;;;10.00;96.80;;;;;;962429;146;27322;-72
2022/04/27 04:23:02;;;;;;;40.27;11.23;;;10.00;96.80;;;;;;961214;146;27312;-72
2022/04/27 04:28:32;;;;;;;55.77;10.90;;;9.90;96.80;;;;;;963230;146;27418;-74
2022/04/27 04:31:01;;;;;;;30.07;10.60;;;9.90;96.70;;;;;;960964;146;27413;-72
2022/04/27 04:33:28;;;;;;;43.20;10.20;;;9.80;96.70;;;;;;961372;146;27344;-74
2022/04/27 04:35:54;;;;;;;32.97;9.67;;;9.80;96.80;;;;;;960738;146;27344;-72
2022/04/27 04:38:21;;;;;;;24.30;10.30;;;9.80;97.00;;;;;;962231;146;27228;-72
2022/04/27 04:40:47;;;;;;;33.47;11.00;;;9.70;97.00;;;;;;960883;146;27320;-72
2022/04/27 04:43:14;;;;;;;10.00;8.90;;;9.70;97.10;;;;;;962103;146;27300;-73
2022/04/27 04:45:41;;;;;;;16.17;10.80;;;9.70;97.30;;;;;;960898;146;27347;-74
2022/04/27 04:48:08;;;;;;;15.70;10.67;;;9.70;97.50;;;;;;960606;146;27332;-72
2022/04/27 04:50:34;;;;;;;13.93;12.13;;;9.70;97.60;;;;;;956675;146;27444;-73
2022/04/27 04:53:00;;;;;;;18.83;11.57;;;9.70;97.50;;;;;;954714;148;27300;-72
2022/04/27 04:55:27;;;;;;;14.23;11.87;;;9.70;97.70;;;;;;953106;148;27474;-72
2022/04/27 04:57:54;;;;;;;15.17;11.23;;;9.70;97.80;;;;;;954536;148;27474;-73
2022/04/27 05:00:20;;;;;;;15.00;10.33;;;9.70;98.00;;;;;;956438;147;27331;-71
2022/04/27 05:02:47;;;;;;;14.47;12.23;;;9.80;98.30;;;;;;952344;148;27843;-71
2022/04/27 05:05:13;;;;;;;15.40;12.80;;;9.80;98.30;;;;;;954299;150;27348;-72
2022/04/27 05:07:40;;;;;;;14.63;11.63;;;9.90;98.40;;;;;;954239;149;27319;-72
2022/04/27 05:10:07;;;;;;;13.70;12.17;;;9.90;98.50;;;;;;947466;150;27297;-72
2022/04/27 05:12:34;;;;;;;14.10;12.27;;;9.90;98.50;;;;;;966937;147;27918;-72
2022/04/27 05:15:00;;;;;;;12.30;11.00;;;10.00;98.60;;;;;;948633;150;27412;-73
2022/04/27 05:17:26;;;;;;;12.73;11.43;;;10.00;98.70;;;;;;949210;149;27401;-72
2022/04/27 05:19:54;;;;;;;13.90;11.83;;;10.10;98.80;;;;;;948496;149;27329;-72
2022/04/27 05:22:19;;;;;;;13.80;12.37;;;10.20;99.00;;;;;;947188;149;27301;-72
2022/04/27 05:24:46;;;;;;;13.57;12.23;;;10.20;99.00;;;;;;968384;147;27287;-73
2022/04/27 05:27:13;;;;;;;14.57;11.97;;;10.30;99.20;;;;;;955326;148;27764;-72
2022/04/27 05:32:27;;;;;;;13.67;11.60;;;10.50;99.20;;;;;;968108;146;27355;-72
2022/04/27 05:34:52;;;;;;;13.60;11.60;;;10.60;98.90;;;;;;952264;150;27396;-72
2022/04/27 05:37:17;;;;;;;14.00;11.87;;;10.60;98.70;;;;;;966324;147;27697;-74
2022/04/27 05:39:44;;;;;;;14.40;11.40;;;10.70;98.70;;;;;;965530;147;27445;-72
2022/04/27 05:42:10;;;;;;;14.83;12.27;;;10.80;98.70;;;;;;964583;147;27713;-73
2022/04/27 05:44:37;;;;;;;12.63;11.43;;;10.80;98.60;;;;;;955497;150;27319;-72
2022/04/27 05:47:04;;;;;;;15.63;12.27;;;10.90;98.60;;;;;;966526;147;27590;-72
2022/04/27 05:49:30;;;;;;;12.30;11.00;;;11.00;98.50;;;;;;947320;147;27463;-72
2022/04/27 05:51:57;;;;;;;14.53;13.00;;;11.00;98.30;;;;;;976662;143;27328;-76
2022/04/27 05:54:23;;;;;;;13.70;11.90;;;11.10;98.20;;;;;;963678;146;27337;-74
2022/04/27 05:56:50;;;;;;;12.90;11.60;;;11.10;97.70;;;;;;960860;146;28578;-75
2022/04/27 05:59:17;;;;;;;13.80;12.30;;;11.20;98.00;;;;;;975721;143;27359;-75
2022/04/27 06:01:45;;;;;;;14.27;12.77;;;11.20;97.90;;;;;;981356;143;27249;-74
2022/04/27 06:04:10;;;;;;;15.73;12.60;;;11.20;98.00;;;;;;979471;143;27374;-74
2022/04/27 06:06:36;;;;;;;15.97;14.23;;;11.30;97.80;;;;;;958604;146;27378;-75
2022/04/27 06:09:03;;;;;;;14.40;12.90;;;11.30;97.80;;;;;;974765;144;27341;-75
2022/04/27 06:11:29;;;;;;;14.27;12.87;;;11.30;97.80;;;;;;974720;144;27311;-76
2022/04/27 06:13:56;;;;;;;16.07;14.40;;;11.40;97.80;;;;;;974591;144;28019;-75
2022/04/27 06:16:24;;;;;;;14.20;12.80;;;11.40;97.80;;;;;;972954;145;27354;-75
2022/04/27 06:18:49;;;;;;;16.03;14.33;;;11.50;97.80;;;;;;974094;145;27361;-74
2022/04/27 06:21:17;;;;;;;14.73;13.13;;;11.50;98.00;;;;;;972262;145;27480;-74
2022/04/27 06:23:42;;;;;;;15.37;13.47;;;11.60;97.90;;;;;;972177;145;27948;-74
2022/04/27 06:26:09;;;;;;;14.43;13.03;;;11.70;97.80;;;;;;971645;145;27290;-75
2022/04/27 06:28:35;;;;;;;15.77;14.17;;;11.70;97.70;;;;;;971411;145;27272;-74
2022/04/27 06:31:02;;;;;;;15.00;13.60;;;11.80;97.70;;;;;;972468;145;27379;-75
2022/04/27 06:33:29;;;;;;;15.23;13.60;;;11.90;97.60;;;;;;974683;145;27420;-74
2022/04/27 06:35:55;;;;;;;14.53;13.03;;;11.90;97.40;;;;;;973565;145;27323;-74
2022/04/27 06:38:22;;;;;;;16.13;12.50;;;11.90;97.30;;;;;;973846;145;27293;-75
2022/04/27 06:40:48;;;;;;;14.13;12.63;;;12.00;97.30;;;;;;972092;145;27286;-74
2022/04/27 06:43:15;;;;;;;14.13;12.73;;;12.10;97.40;;;;;;972126;145;27347;-74
2022/04/27 06:45:42;;;;;;;14.83;13.33;;;12.10;97.40;;;;;;966827;145;27419;-73
2022/04/27 06:48:08;;;;;;;14.03;12.53;;;12.20;97.40;;;;;;958839;146;27304;-74
2022/04/27 06:50:35;;;;;;;14.33;12.87;;;12.30;97.40;;;;;;963661;146;27280;-72
2022/04/27 06:53:01;;;;;;;13.90;12.50;;;12.40;97.20;;;;;;964740;144;27294;-71
2022/04/27 06:55:28;;;;;;;14.07;12.47;;;12.50;97.10;;;;;;963717;144;27329;-71
2022/04/27 06:57:55;;;;;;;13.67;12.33;;;12.50;97.10;;;;;;965331;144;27258;-73
2022/04/27 07:00:21;;;;;;;14.80;13.30;;;12.70;97.40;;;;;;950984;147;27448;-70
2022/04/27 07:02:48;;;;;;;13.70;12.33;;;12.80;97.30;;;;;;949886;147;27278;-70
2022/04/27 07:05:17;;;;;;;13.60;12.20;;;12.90;97.30;;;;;;945663;147;27317;-72
2022/04/27 07:07:44;;;;;;;13.33;12.13;;;13.10;97.50;;;;;;963476;144;27330;-72
2022/04/27 07:10:10;;;;;;;13.23;11.97;;;13.20;97.70;;;;;;961864;144;27401;-72
2022/04/27 07:12:37;;;;;;;13.63;12.33;;;13.50;97.60;;;;;;964262;144;27359;-72
2022/04/27 07:15:04;;;;;;;12.30;11.20;;;13.60;97.50;;;;;;965005;144;27230;-72
2022/04/27 07:17:30;;;;;;;11.97;10.87;;;13.80;97.20;;;;;;964157;144;27319;-72
2022/04/27 07:19:57;;;;;;;12.70;11.57;;;14.00;97.00;;;;;;963646;144;27262;-72
2022/04/27 07:22:23;;;;;;;12.30;11.13;;;14.20;96.70;;;;;;963193;144;27329;-73
2022/04/27 07:24:50;;;;;;;12.47;11.27;;;14.40;96.30;;;;;;951050;147;27344;-71
2022/04/27 07:27:16;;;;;;;11.57;10.57;;;14.60;95.90;;;;;;951101;147;27405;-71
2022/04/27 07:29:43;;;;;;;12.07;10.63;;;14.80;95.70;;;;;;951578;147;27380;-72
2022/04/27 07:32:10;;;;;;;11.03;10.03;;;14.90;95.40;;;;;;943554;147;27383;-72
2022/04/27 07:34:36;;;;;;;12.40;11.30;;;15.10;94.90;;;;;;961448;145;27299;-72
2022/04/27 07:37:05;;;;;;;12.05;10.85;;;15.20;94.40;;;;;;957553;146;27450;-71
2022/04/27 07:39:29;;;;;;;11.00;10.00;;;15.40;93.90;;;;;;958691;146;27361;-73
2022/04/27 07:41:56;;;;;;;11.65;10.55;;;15.40;93.50;;;;;;958543;146;27300;-72
2022/04/27 07:44:23;;;;;;;10.83;9.83;;;15.50;93.30;;;;;;956768;146;27348;-72
2022/04/27 07:46:50;;;;;;;10.18;9.25;;;15.60;93.10;;;;;;958009;146;27323;-72
2022/04/27 07:49:16;;;;;;;11.85;10.53;;;15.70;93.00;;;;;;959410;146;27318;-73
2022/04/27 07:51:42;;;;;;;11.10;10.03;;;15.80;92.80;;;;;;958494;146;27460;-71
2022/04/27 07:54:09;;;;;;;11.15;10.08;;;15.90;92.70;;;;;;959576;146;27268;-73
2022/04/27 07:56:36;;;;;;;10.53;9.55;;;16.00;92.60;;;;;;958534;146;27304;-72
2022/04/27 07:59:02;;;;;;;10.55;9.55;;;16.10;92.60;;;;;;956981;146;27336;-73
2022/04/27 08:01:30;;;;;;;10.75;9.80;;;16.20;92.70;;;;;;958353;146;27296;-72
2022/04/27 08:03:55;;;;;;;10.18;9.28;;;16.40;92.60;;;;;;959196;146;27718;-72
2022/04/27 08:06:22;;;;;;;9.30;8.40;;;16.60;92.50;;;;;;958725;146;27367;-72
2022/04/27 08:08:48;;;;;;;10.28;9.38;;;16.80;92.30;;;;;;959718;146;27330;-72
2022/04/27 08:11:16;;;;;;;9.20;8.40;;;17.00;91.90;;;;;;960576;146;27474;-72
2022/04/27 08:13:42;;;;;;;9.93;9.03;;;17.20;91.80;;;;;;958780;146;27377;-73
2022/04/27 08:16:10;;;;;;;9.48;8.63;;;17.40;91.20;;;;;;958681;146;27357;-72
2022/04/27 08:18:35;;;;;;;9.60;8.70;;;17.50;90.80;;;;;;959632;146;27792;-72
2022/04/27 08:21:18;;;;;;;9.83;8.93;;;17.70;90.00;;;;;;957568;146;27611;-72
2022/04/27 08:23:43;;;;;;;9.65;8.75;;;17.80;88.90;;;;;;958722;146;27431;-73
2022/04/27 08:26:10;;;;;;;9.15;8.33;;;17.90;87.90;;;;;;959046;146;27284;-73
2022/04/27 08:28:39;;;;;;;9.08;8.28;;;18.00;87.80;;;;;;957622;146;27471;-73
2022/04/27 08:31:06;;;;;;;8.63;7.87;;;18.10;88.00;;;;;;957552;146;27369;-72
2022/04/27 08:33:32;;;;;;;9.15;8.35;;;18.20;88.40;;;;;;954704;147;27338;-72
2022/04/27 08:35:59;;;;;;;8.93;8.20;;;18.40;88.00;;;;;;954161;147;27838;-73
2022/04/27 08:38:25;;;;;;;8.35;7.67;;;18.60;88.10;;;;;;954007;147;27241;-73
2022/04/27 08:40:52;;;;;;;8.78;7.97;;;18.80;87.30;;;;;;956785;147;27715;-74
2022/04/27 08:43:19;;;;;;;7.83;7.22;;;19.10;86.20;;;;;;951119;147;27336;-73
2022/04/27 08:45:45;;;;;;;8.38;7.50;;;19.30;85.30;;;;;;948846;147;27398;-72
2022/04/27 08:48:12;;;;;;;8.18;7.58;;;19.50;83.70;;;;;;964057;144;27307;-72
2022/04/27 08:50:38;;;;;;;8.23;7.53;;;19.70;82.20;;;;;;963874;144;27673;-72
2022/04/27 08:53:05;;;;;;;7.35;6.75;;;20.00;81.90;;;;;;962337;144;27418;-73
2022/04/27 08:55:31;;;;;;;7.78;7.17;;;20.30;84.40;;;;;;948421;147;27442;-72
2022/04/27 08:58:10;;;;;;;7.10;6.53;;;20.80;87.30;;;;;;961319;144;28741;-73
2022/04/27 09:00:36;;;;;;;6.47;5.87;;;21.50;90.30;;;;;;951089;147;27403;-72
2022/04/27 09:03:22;;;;;;;7.15;6.45;;;22.50;90.70;;;;;;944209;148;27742;-73
2022/04/27 09:05:51;;;;;;;6.45;5.92;;;23.40;87.80;;;;;;953350;147;27262;-73
2022/04/27 09:08:17;;;;;;;5.55;5.15;;;24.50;86.00;;;;;;955987;147;27340;-73
2022/04/27 09:10:44;;;;;;;6.10;5.60;;;25.60;84.50;;;;;;956174;147;27453;-74
2022/04/27 09:13:11;;;;;;;5.37;5.03;;;26.70;81.10;;;;;;953976;147;27294;-73
2022/04/27 09:15:37;;;;;;;6.20;5.78;;;27.70;77.30;;;;;;954038;147;27294;-73
2022/04/27 09:20:54;;;;;;;5.92;5.50;;;29.60;69.40;;;;;;963639;144;27456;-74
2022/04/27 09:23:24;;;;;;;5.35;4.95;;;30.40;65.70;;;;;;960798;144;27430;-74
2022/04/27 09:25:51;;;;;;;5.53;5.12;;;31.00;63.20;;;;;;961386;144;27439;-74
2022/04/27 09:28:17;;;;;;;5.25;4.85;;;31.40;61.10;;;;;;949817;147;26310;-73
2022/04/27 09:30:44;;;;;;;5.85;5.45;;;31.80;59.70;;;;;;951407;147;26222;-74
2022/04/27 09:33:10;;;;;;;5.62;5.12;;;32.20;58.80;;;;;;943835;148;27336;-73
2022/04/27 09:35:37;;;;;;;5.90;5.40;;;32.60;57.60;;;;;;963150;144;26235;-73
2022/04/27 09:38:18;;;;;;;5.53;5.03;;;32.90;55.90;;;;;;950357;147;27385;-73
2022/04/27 09:40:52;;;;;;;5.53;5.12;;;33.10;55.40;;;;;;950007;147;26210;-73
2022/04/27 09:43:17;;;;;;;5.60;5.20;;;33.30;54.90;;;;;;962426;144;26168;-73
2022/04/27 09:45:44;;;;;;;5.50;5.00;;;33.40;54.10;;;;;;959673;144;26217;-73
2022/04/27 09:48:17;;;;;;;6.20;5.70;;;33.50;53.00;;;;;;943996;147;26276;-73
2022/04/27 09:50:45;;;;;;;5.80;5.30;;;33.50;52.00;;;;;;944386;147;26249;-74
2022/04/27 09:53:12;;;;;;;5.28;4.87;;;33.30;51.70;;;;;;962875;144;26333;-74
2022/04/27 09:55:41;;;;;;;4.85;4.55;;;33.20;51.10;;;;;;952404;147;27431;-73
2022/04/27 09:58:07;;;;;;;4.90;4.50;;;33.00;51.10;;;;;;961613;144;27293;-74
2022/04/27 10:00:35;;;;;;;4.97;4.58;;;32.80;50.80;;;;;;943638;146;27430;-73
2022/04/27 10:03:00;;;;;;;4.87;4.58;;;32.50;50.70;;;;;;963815;144;27290;-74
2022/04/27 10:05:27;;;;;;;4.87;4.58;;;32.30;50.10;;;;;;963275;144;28230;-74
2022/04/27 10:07:54;;;;;;;4.60;4.30;;;32.10;49.80;;;;;;964572;144;27410;-73
2022/04/27 10:10:20;;;;;;;6.20;5.70;;;31.80;49.90;;;;;;950038;147;27254;-73
2022/04/27 10:12:48;;;;;;;4.85;4.45;;;31.50;49.80;;;;;;963717;144;27265;-73
2022/04/27 10:15:13;;;;;;;5.53;5.05;;;31.20;49.80;;;;;;963124;144;27315;-74
2022/04/27 10:17:40;;;;;;;4.50;4.20;;;31.00;49.70;;;;;;963322;144;27229;-74
2022/04/27 10:20:28;;;;;;;5.28;4.90;;;30.70;49.70;;;;;;943969;147;27369;-73
2022/04/27 10:23:20;;;;;;;5.30;4.90;;;30.40;49.30;;;;;;960374;144;27401;-74
2022/04/27 10:25:43;;;;;;;5.25;4.75;;;30.10;49.40;;;;;;962349;144;27315;-73
2022/04/27 10:28:16;;;;;;;5.22;4.72;;;29.70;49.60;;;;;;962209;144;27320;-72
2022/04/27 10:30:45;;;;;;;5.47;5.00;;;29.30;48.80;;;;;;949892;147;27320;-73
2022/04/27 10:33:11;;;;;;;6.03;5.62;;;28.80;48.50;;;;;;944423;147;27338;-74
2022/04/27 10:35:38;;;;;;;5.30;4.85;;;28.40;48.20;;;;;;958578;145;27407;-74
2022/04/27 10:38:05;;;;;;;4.78;4.37;;;28.00;48.60;;;;;;952875;147;27342;-72
2022/04/27 10:40:43;;;;;;;6.00;5.50;;;27.50;49.00;;;;;;964247;144;27294;-72
2022/04/27 10:43:10;;;;;;;5.47;5.08;;;27.10;48.90;;;;;;965737;144;27307;-72
2022/04/27 10:45:36;;;;;;;5.20;4.80;;;26.70;49.30;;;;;;952864;147;27334;-73
2022/04/27 10:48:07;;;;;;;5.75;4.37;;;26.40;49.60;;;;;;961357;145;27301;-74
2022/04/27 10:50:35;;;;;;;5.47;5.08;;;26.10;50.20;;;;;;954425;146;27502;-73
2022/04/27 10:53:01;;;;;;;5.50;5.00;;;25.90;50.40;;;;;;954636;147;27418;-73
2022/04/27 10:55:37;;;;;;;5.47;5.08;;;25.60;50.60;;;;;;946524;149;27499;-72
2022/04/27 10:58:13;;;;;;;5.40;5.00;;;25.40;50.90;;;;;;948002;149;27324;-73
2022/04/27 11:00:54;;;;;;;4.90;4.50;;;25.20;51.20;;;;;;949310;149;27391;-74
2022/04/27 11:03:21;;;;;;;4.20;3.90;;;24.90;51.60;;;;;;947201;148;27396;-72
2022/04/27 11:05:48;;;;;;;4.97;4.58;;;24.70;52.00;;;;;;966832;147;28763;-72
2022/04/27 11:08:14;;;;;;;5.17;4.78;;;24.60;52.70;;;;;;955701;148;27394;-72
2022/04/27 11:10:42;;;;;;;5.12;4.72;;;24.50;52.30;;;;;;954374;148;27309;-74
2022/04/27 11:13:12;;;;;;;4.30;4.00;;;24.50;52.40;;;;;;951000;149;27283;-73
2022/04/27 11:15:34;;;;;;;5.03;4.62;;;24.40;52.50;;;;;;942748;152;27342;-74
2022/04/27 11:18:01;;;;;;;4.85;4.45;;;24.30;52.50;;;;;;947141;149;28233;-72
2022/04/27 11:20:33;;;;;;;4.90;4.50;;;24.30;52.80;;;;;;947049;149;27306;-73
2022/04/27 11:23:00;;;;;;;4.90;4.35;;;24.20;52.80;;;;;;947410;149;27923;-73
2022/04/27 11:25:32;;;;;;;5.90;5.35;;;24.20;52.30;;;;;;948657;149;28479;-74
2022/04/27 11:27:59;;;;;;;4.80;4.40;;;24.10;52.50;;;;;;947179;149;27452;-72
2022/04/27 11:30:25;;;;;;;5.55;5.05;;;24.20;52.60;;;;;;947297;149;27286;-72
2022/04/27 11:32:52;;;;;;;4.60;4.28;;;24.20;52.50;;;;;;947358;149;27307;-74
2022/04/27 11:35:21;;;;;;;4.53;4.22;;;24.20;52.50;;;;;;949012;149;27306;-73
2022/04/27 11:37:45;;;;;;;4.30;3.98;;;24.20;52.60;;;;;;947311;149;27381;-74
2022/04/27 11:40:12;;;;;;;4.35;3.95;;;24.20;52.60;;;;;;948774;149;27852;-73
2022/04/27 11:42:38;;;;;;;4.10;3.80;;;24.20;52.60;;;;;;947566;149;27339;-72
2022/04/27 11:45:04;;;;;;;4.08;3.67;;;24.30;52.50;;;;;;945641;149;27277;-72
2022/04/27 11:47:31;;;;;;;3.95;3.65;;;24.30;52.60;;;;;;948142;149;27348;-72
2022/04/27 11:49:58;;;;;;;3.75;3.45;;;24.40;52.90;;;;;;948100;149;27257;-73
2022/04/27 11:52:24;;;;;;;4.17;3.87;;;24.50;53.00;;;;;;947517;149;27322;-72
2022/04/27 11:54:51;;;;;;;3.45;3.15;;;24.50;52.50;;;;;;948527;148;27781;-73
2022/04/27 11:57:21;;;;;;;3.77;3.17;;;24.60;51.90;;;;;;964950;148;27275;-72
2022/04/27 11:59:57;;;;;;;3.70;3.42;;;24.70;51.70;;;;;;946906;148;27438;-72
2022/04/27 12:02:23;;;;;;;3.30;3.10;;;24.70;51.40;;;;;;948281;150;27356;-73
2022/04/27 12:04:52;;;;;;;3.37;3.17;;;24.70;51.40;;;;;;964181;147;27462;-73
2022/04/27 12:07:16;;;;;;;3.05;2.85;;;24.70;51.20;;;;;;953962;148;27261;-72
2022/04/27 12:09:42;;;;;;;3.30;3.08;;;24.70;50.90;;;;;;947756;150;27317;-71
2022/04/27 12:12:09;;;;;;;3.22;2.92;;;24.70;50.20;;;;;;963569;147;27305;-72
2022/04/27 12:14:35;;;;;;;3.83;2.80;;;24.60;50.10;;;;;;965354;147;27292;-73
2022/04/27 12:17:02;;;;;;;3.10;2.80;;;24.50;50.10;;;;;;965760;147;27466;-74
2022/04/27 12:19:29;;;;;;;3.35;2.80;;;24.40;50.20;;;;;;954677;150;27353;-72
2022/04/27 12:22:13;;;;;;;2.98;2.77;;;24.40;50.10;;;;;;965394;147;27294;-72
2022/04/27 12:24:43;;;;;;;2.75;2.55;;;24.40;50.20;;;;;;966834;147;27403;-72
2022/04/27 12:27:19;;;;;;;2.30;2.20;;;24.50;50.30;;;;;;964478;147;27295;-73
2022/04/27 12:29:45;;;;;;;2.35;2.22;;;24.50;50.00;;;;;;966279;147;27306;-72
2022/04/27 12:32:12;;;;;;;2.70;2.50;;;24.50;49.70;;;;;;965173;147;27347;-74
2022/04/27 12:37:32;;;;;;;2.33;2.12;;;24.40;48.70;;;;;;965356;147;27386;-73
2022/04/27 12:40:14;;;;;;;2.62;2.40;;;24.40;48.80;;;;;;965220;145;27404;-72
2022/04/27 12:42:59;;;;;;;2.47;2.22;;;24.30;48.80;;;;;;954749;148;27297;-71
2022/04/27 12:45:25;;;;;;;2.05;1.95;;;24.20;48.70;;;;;;947663;147;27359;-71
2022/04/27 12:47:52;;;;;;;2.27;2.17;;;24.10;48.60;;;;;;955585;149;27275;-72
2022/04/27 12:50:19;;;;;;;2.67;2.47;;;24.00;48.60;;;;;;955575;149;27324;-72
2022/04/27 12:52:46;;;;;;;2.22;2.12;;;23.90;48.50;;;;;;965289;147;27409;-72
2022/04/27 12:55:12;;;;;;;2.75;2.55;;;23.70;48.50;;;;;;953342;145;27458;-73
2022/04/27 12:57:56;;;;;;;2.55;2.35;;;23.60;48.70;;;;;;968239;145;27296;-71